sensor_id;sensor_type;location;lat;lon;timestamp;temperature;humidity
27224;DHT22;14965;50.660;13.226;2022-07-06T00:01:50;14.60;99.90
27224;DHT22;14965;50.660;13.226;2022-07-06T00:04:16;14.60;99.90
27224;DHT22;14965;50.660;13.226;2022-07-06T00:06:42;14.60;99.90
27224;DHT22;14965;50.660;13.226;2022-07-06T00:09:09;14.70;99.90
27224;DHT22;14965;50.660;13.226;2022-07-06T00:11:35;14.60;99.90
27224;DHT22;14965;50.660;13.226;2022-07-06T00:14:01;14.50;99.90
27224;DHT22;14965;50.660;13.226;2022-07-06T00:16:27;14.50;99.90
27224;DHT22;14965;50.660;13.226;2022-07-06T00:18:53;14.50;99.90
27224;DHT22;14965;50.660;13.226;2022-07-06T00:21:19;14.40;99.90
27224;DHT22;14965;50.660;13.226;2022-07-06T00:23:45;14.40;99.90
27224;DHT22;14965;50.660;13.226;2022-07-06T00:26:12;14.40;99.90
27224;DHT22;14965;50.660;13.226;2022-07-06T00:28:38;14.30;99.90
27224;DHT22;14965;50.660;13.226;2022-07-06T00:31:05;14.40;99.90
27224;DHT22;14965;50.660;13.226;2022-07-06T00:33:31;14.40;99.90
27224;DHT22;14965;50.660;13.226;2022-07-06T00:35:57;14.30;99.90
27224;DHT22;14965;50.660;13.226;2022-07-06T00:38:23;14.40;99.90
27224;DHT22;14965;50.660;13.226;2022-07-06T00:40:48;14.40;99.90
27224;DHT22;14965;50.660;13.226;2022-07-06T00:43:16;14.40;99.90
27224;DHT22;14965;50.660;13.226;2022-07-06T00:45:42;14.40;99.90
27224;DHT22;14965;50.660;13.226;2022-07-06T00:48:07;14.40;99.90
27224;DHT22;14965;50.660;13.226;2022-07-06T00:50:34;14.50;99.90
27224;DHT22;14965;50.660;13.226;2022-07-06T00:53:01;14.40;99.90
27224;DHT22;14965;50.660;13.226;2022-07-06T00:55:32;14.40;99.90
27224;DHT22;14965;50.660;13.226;2022-07-06T00:58:01;14.40;99.90
27224;DHT22;14965;50.660;13.226;2022-07-06T01:00:30;14.40;99.90
27224;DHT22;14965;50.660;13.226;2022-07-06T01:02:56;14.40;99.90
27224;DHT22;14965;50.660;13.226;2022-07-06T01:05:22;14.40;99.90
27224;DHT22;14965;50.660;13.226;2022-07-06T01:07:50;14.40;99.90
27224;DHT22;14965;50.660;13.226;2022-07-06T01:10:18;14.30;99.90
27224;DHT22;14965;50.660;13.226;2022-07-06T01:12:47;14.30;99.90
27224;DHT22;14965;50.660;13.226;2022-07-06T01:15:15;14.30;99.90
27224;DHT22;14965;50.660;13.226;2022-07-06T01:17:43;14.40;99.90
27224;DHT22;14965;50.660;13.226;2022-07-06T01:20:12;14.40;99.90
27224;DHT22;14965;50.660;13.226;2022-07-06T01:22:39;14.30;99.90
27224;DHT22;14965;50.660;13.226;2022-07-06T01:25:06;14.30;99.90
27224;DHT22;14965;50.660;13.226;2022-07-06T01:27:33;14.30;99.90
27224;DHT22;14965;50.660;13.226;2022-07-06T01:30:00;14.30;99.90
27224;DHT22;14965;50.660;13.226;2022-07-06T01:32:26;14.20;99.90
27224;DHT22;14965;50.660;13.226;2022-07-06T01:34:52;14.20;99.90
27224;DHT22;14965;50.660;13.226;2022-07-06T01:37:19;14.10;99.90
27224;DHT22;14965;50.660;13.226;2022-07-06T01:39:45;13.90;99.90
27224;DHT22;14965;50.660;13.226;2022-07-06T01:42:11;13.80;99.90
27224;DHT22;14965;50.660;13.226;2022-07-06T01:44:36;13.80;99.90
27224;DHT22;14965;50.660;13.226;2022-07-06T01:47:02;13.80;99.90
27224;DHT22;14965;50.660;13.226;2022-07-06T01:49:29;13.80;99.90
27224;DHT22;14965;50.660;13.226;2022-07-06T01:51:55;13.70;99.90
27224;DHT22;14965;50.660;13.226;2022-07-06T01:54:22;13.70;99.90
27224;DHT22;14965;50.660;13.226;2022-07-06T01:56:48;13.70;99.90
27224;DHT22;14965;50.660;13.226;2022-07-06T01:59:14;13.70;99.90
27224;DHT22;14965;50.660;13.226;2022-07-06T02:01:43;13.60;99.90
27224;DHT22;14965;50.660;13.226;2022-07-06T02:04:08;13.60;99.90
27224;DHT22;14965;50.660;13.226;2022-07-06T02:06:34;13.70;99.90
27224;DHT22;14965;50.660;13.226;2022-07-06T02:09:06;13.80;99.90
27224;DHT22;14965;50.660;13.226;2022-07-06T02:11:33;13.90;99.90
27224;DHT22;14965;50.660;13.226;2022-07-06T02:13:59;13.90;99.90
27224;DHT22;14965;50.660;13.226;2022-07-06T02:16:25;13.90;99.90
27224;DHT22;14965;50.660;13.226;2022-07-06T02:18:50;13.80;99.90
27224;DHT22;14965;50.660;13.226;2022-07-06T02:21:16;13.80;99.90
27224;DHT22;14965;50.660;13.226;2022-07-06T02:23:42;13.70;99.90
27224;DHT22;14965;50.660;13.226;2022-07-06T02:26:08;13.60;99.90
27224;DHT22;14965;50.660;13.226;2022-07-06T02:28:35;13.60;99.90
27224;DHT22;14965;50.660;13.226;2022-07-06T02:31:01;13.60;99.90
27224;DHT22;14965;50.660;13.226;2022-07-06T02:33:27;13.60;99.90
27224;DHT22;14965;50.660;13.226;2022-07-06T02:35:53;13.60;99.90
27224;DHT22;14965;50.660;13.226;2022-07-06T02:38:19;13.50;99.90
27224;DHT22;14965;50.660;13.226;2022-07-06T02:40:45;13.50;99.90
27224;DHT22;14965;50.660;13.226;2022-07-06T02:43:10;13.60;99.90
27224;DHT22;14965;50.660;13.226;2022-07-06T02:45:38;13.60;99.90
27224;DHT22;14965;50.660;13.226;2022-07-06T02:48:04;13.70;99.90
27224;DHT22;14965;50.660;13.226;2022-07-06T02:50:30;13.70;99.90
27224;DHT22;14965;50.660;13.226;2022-07-06T02:52:56;13.70;99.90
27224;DHT22;14965;50.660;13.226;2022-07-06T02:55:22;13.60;99.90
27224;DHT22;14965;50.660;13.226;2022-07-06T02:57:48;13.50;99.90
27224;DHT22;14965;50.660;13.226;2022-07-06T03:00:14;13.40;99.90
27224;DHT22;14965;50.660;13.226;2022-07-06T03:02:41;13.50;99.90
27224;DHT22;14965;50.660;13.226;2022-07-06T03:05:08;13.40;99.90
27224;DHT22;14965;50.660;13.226;2022-07-06T03:07:34;13.40;99.90
27224;DHT22;14965;50.660;13.226;2022-07-06T03:10:00;13.30;99.90
27224;DHT22;14965;50.660;13.226;2022-07-06T03:12:25;13.20;99.90
27224;DHT22;14965;50.660;13.226;2022-07-06T03:14:52;13.20;99.90
27224;DHT22;14965;50.660;13.226;2022-07-06T03:17:18;13.30;99.90
27224;DHT22;14965;50.660;13.226;2022-07-06T03:19:45;13.30;99.90
27224;DHT22;14965;50.660;13.226;2022-07-06T03:22:11;13.30;99.90
27224;DHT22;14965;50.660;13.226;2022-07-06T03:24:37;13.30;99.90
27224;DHT22;14965;50.660;13.226;2022-07-06T03:27:03;13.10;99.90
27224;DHT22;14965;50.660;13.226;2022-07-06T03:29:29;13.10;99.90
27224;DHT22;14965;50.660;13.226;2022-07-06T03:31:55;13.10;99.90
27224;DHT22;14965;50.660;13.226;2022-07-06T03:34:22;13.10;99.90
27224;DHT22;14965;50.660;13.226;2022-07-06T03:36:49;13.20;99.90
27224;DHT22;14965;50.660;13.226;2022-07-06T03:39:15;13.20;99.90
27224;DHT22;14965;50.660;13.226;2022-07-06T03:41:41;13.30;99.90
27224;DHT22;14965;50.660;13.226;2022-07-06T03:44:07;13.40;99.90
27224;DHT22;14965;50.660;13.226;2022-07-06T03:46:33;13.40;99.90
27224;DHT22;14965;50.660;13.226;2022-07-06T03:48:58;13.40;99.90
27224;DHT22;14965;50.660;13.226;2022-07-06T03:51:24;13.40;99.90
27224;DHT22;14965;50.660;13.226;2022-07-06T03:53:51;13.40;99.90
27224;DHT22;14965;50.660;13.226;2022-07-06T03:56:17;13.30;99.90
27224;DHT22;14965;50.660;13.226;2022-07-06T03:58:43;13.30;99.90
27224;DHT22;14965;50.660;13.226;2022-07-06T04:01:09;13.30;99.90
27224;DHT22;14965;50.660;13.226;2022-07-06T04:03:38;13.30;99.90
27224;DHT22;14965;50.660;13.226;2022-07-06T04:06:04;13.40;99.90
27224;DHT22;14965;50.660;13.226;2022-07-06T04:08:30;13.40;99.90
27224;DHT22;14965;50.660;13.226;2022-07-06T04:10:57;13.40;99.90
27224;DHT22;14965;50.660;13.226;2022-07-06T04:13:23;13.40;99.90
27224;DHT22;14965;50.660;13.226;2022-07-06T04:15:49;13.40;99.90
27224;DHT22;14965;50.660;13.226;2022-07-06T04:18:14;13.40;99.90
27224;DHT22;14965;50.660;13.226;2022-07-06T04:20:40;13.40;99.90
27224;DHT22;14965;50.660;13.226;2022-07-06T04:23:06;13.40;99.90
27224;DHT22;14965;50.660;13.226;2022-07-06T04:25:32;13.50;99.90
27224;DHT22;14965;50.660;13.226;2022-07-06T04:27:59;13.70;99.90
27224;DHT22;14965;50.660;13.226;2022-07-06T04:30:25;13.80;99.90
27224;DHT22;14965;50.660;13.226;2022-07-06T04:32:51;14.40;99.90
27224;DHT22;14965;50.660;13.226;2022-07-06T04:35:17;15.30;99.90
27224;DHT22;14965;50.660;13.226;2022-07-06T04:37:43;16.50;99.90
27224;DHT22;14965;50.660;13.226;2022-07-06T04:40:10;17.60;99.90
27224;DHT22;14965;50.660;13.226;2022-07-06T04:42:37;18.70;99.90
27224;DHT22;14965;50.660;13.226;2022-07-06T04:45:05;19.70;99.90
27224;DHT22;14965;50.660;13.226;2022-07-06T04:47:32;20.40;99.90
27224;DHT22;14965;50.660;13.226;2022-07-06T04:49:58;21.10;99.90
27224;DHT22;14965;50.660;13.226;2022-07-06T04:52:24;21.60;99.90
27224;DHT22;14965;50.660;13.226;2022-07-06T04:54:50;22.10;99.90
27224;DHT22;14965;50.660;13.226;2022-07-06T04:57:15;22.60;99.90
27224;DHT22;14965;50.660;13.226;2022-07-06T04:59:41;23.00;99.90
27224;DHT22;14965;50.660;13.226;2022-07-06T05:02:08;23.40;98.30
27224;DHT22;14965;50.660;13.226;2022-07-06T05:04:34;23.40;97.30
27224;DHT22;14965;50.660;13.226;2022-07-06T05:07:00;23.50;97.60
27224;DHT22;14965;50.660;13.226;2022-07-06T05:09:26;23.60;96.20
27224;DHT22;14965;50.660;13.226;2022-07-06T05:11:52;23.70;96.30
27224;DHT22;14965;50.660;13.226;2022-07-06T05:14:18;23.60;95.80
27224;DHT22;14965;50.660;13.226;2022-07-06T05:16:43;23.40;95.80
27224;DHT22;14965;50.660;13.226;2022-07-06T05:19:10;23.50;96.00
27224;DHT22;14965;50.660;13.226;2022-07-06T05:21:36;23.50;96.30
27224;DHT22;14965;50.660;13.226;2022-07-06T05:24:02;23.80;95.00
27224;DHT22;14965;50.660;13.226;2022-07-06T05:26:28;23.20;94.90
27224;DHT22;14965;50.660;13.226;2022-07-06T05:28:54;23.40;95.30
27224;DHT22;14965;50.660;13.226;2022-07-06T05:31:20;23.50;94.90
27224;DHT22;14965;50.660;13.226;2022-07-06T05:33:46;23.80;95.10
27224;DHT22;14965;50.660;13.226;2022-07-06T05:36:13;24.00;94.50
27224;DHT22;14965;50.660;13.226;2022-07-06T05:38:39;23.90;93.30
27224;DHT22;14965;50.660;13.226;2022-07-06T05:41:05;23.30;93.50
27224;DHT22;14965;50.660;13.226;2022-07-06T05:43:31;23.30;94.00
27224;DHT22;14965;50.660;13.226;2022-07-06T05:45:57;22.90;94.60
27224;DHT22;14965;50.660;13.226;2022-07-06T05:48:22;23.00;94.70
27224;DHT22;14965;50.660;13.226;2022-07-06T05:50:48;23.20;94.70
27224;DHT22;14965;50.660;13.226;2022-07-06T05:53:15;23.20;93.90
27224;DHT22;14965;50.660;13.226;2022-07-06T05:55:41;23.70;93.80
27224;DHT22;14965;50.660;13.226;2022-07-06T05:58:07;24.10;92.80
27224;DHT22;14965;50.660;13.226;2022-07-06T06:00:33;24.30;92.60
27224;DHT22;14965;50.660;13.226;2022-07-06T06:02:59;24.30;92.40
27224;DHT22;14965;50.660;13.226;2022-07-06T06:05:25;24.70;92.00
27224;DHT22;14965;50.660;13.226;2022-07-06T06:07:51;23.90;91.50
27224;DHT22;14965;50.660;13.226;2022-07-06T06:10:19;23.90;92.00
27224;DHT22;14965;50.660;13.226;2022-07-06T06:12:45;23.40;92.00
27224;DHT22;14965;50.660;13.226;2022-07-06T06:15:12;23.00;93.00
27224;DHT22;14965;50.660;13.226;2022-07-06T06:17:39;23.30;92.50
27224;DHT22;14965;50.660;13.226;2022-07-06T06:20:07;23.10;93.20
27224;DHT22;14965;50.660;13.226;2022-07-06T06:22:44;22.70;94.00
27224;DHT22;14965;50.660;13.226;2022-07-06T06:25:11;21.90;94.10
27224;DHT22;14965;50.660;13.226;2022-07-06T06:27:38;20.70;94.80
27224;DHT22;14965;50.660;13.226;2022-07-06T06:30:05;20.20;97.50
27224;DHT22;14965;50.660;13.226;2022-07-06T06:32:31;20.00;98.60
27224;DHT22;14965;50.660;13.226;2022-07-06T06:34:57;20.20;99.10
27224;DHT22;14965;50.660;13.226;2022-07-06T06:37:23;20.40;97.70
27224;DHT22;14965;50.660;13.226;2022-07-06T06:39:49;20.30;97.10
27224;DHT22;14965;50.660;13.226;2022-07-06T06:42:15;20.40;97.40
27224;DHT22;14965;50.660;13.226;2022-07-06T06:44:42;19.90;98.00
27224;DHT22;14965;50.660;13.226;2022-07-06T06:47:08;19.60;99.60
27224;DHT22;14965;50.660;13.226;2022-07-06T06:49:33;18.90;99.90
27224;DHT22;14965;50.660;13.226;2022-07-06T06:51:59;18.70;99.90
27224;DHT22;14965;50.660;13.226;2022-07-06T06:54:25;18.70;99.90
27224;DHT22;14965;50.660;13.226;2022-07-06T06:56:51;18.10;99.90
27224;DHT22;14965;50.660;13.226;2022-07-06T06:59:17;18.00;99.90
27224;DHT22;14965;50.660;13.226;2022-07-06T07:01:44;17.50;99.90
27224;DHT22;14965;50.660;13.226;2022-07-06T07:04:09;17.40;99.90
27224;DHT22;14965;50.660;13.226;2022-07-06T07:06:35;17.50;99.90
27224;DHT22;14965;50.660;13.226;2022-07-06T07:09:01;17.90;99.90
27224;DHT22;14965;50.660;13.226;2022-07-06T07:11:27;18.60;99.90
27224;DHT22;14965;50.660;13.226;2022-07-06T07:13:53;18.90;99.90
27224;DHT22;14965;50.660;13.226;2022-07-06T07:16:19;18.80;99.90
27224;DHT22;14965;50.660;13.226;2022-07-06T07:18:46;18.70;99.90
27224;DHT22;14965;50.660;13.226;2022-07-06T07:21:12;18.70;99.90
27224;DHT22;14965;50.660;13.226;2022-07-06T07:23:37;18.20;99.90
27224;DHT22;14965;50.660;13.226;2022-07-06T07:26:03;17.50;99.90
27224;DHT22;14965;50.660;13.226;2022-07-06T07:28:29;18.00;99.90
27224;DHT22;14965;50.660;13.226;2022-07-06T07:30:55;18.30;99.90
27224;DHT22;14965;50.660;13.226;2022-07-06T07:33:21;18.10;99.90
27224;DHT22;14965;50.660;13.226;2022-07-06T07:35:48;17.60;99.90
27224;DHT22;14965;50.660;13.226;2022-07-06T07:38:14;17.20;99.90
27224;DHT22;14965;50.660;13.226;2022-07-06T07:40:39;17.20;99.90
27224;DHT22;14965;50.660;13.226;2022-07-06T07:43:05;17.30;99.90
27224;DHT22;14965;50.660;13.226;2022-07-06T07:45:31;17.50;99.90
27224;DHT22;14965;50.660;13.226;2022-07-06T07:47:57;17.70;99.90
27224;DHT22;14965;50.660;13.226;2022-07-06T07:50:23;17.80;99.90
27224;DHT22;14965;50.660;13.226;2022-07-06T07:52:51;17.70;99.90
27224;DHT22;14965;50.660;13.226;2022-07-06T07:55:16;17.50;99.90
27224;DHT22;14965;50.660;13.226;2022-07-06T07:57:42;17.50;99.90
27224;DHT22;14965;50.660;13.226;2022-07-06T08:00:09;17.50;99.90
27224;DHT22;14965;50.660;13.226;2022-07-06T08:02:36;17.80;99.90
27224;DHT22;14965;50.660;13.226;2022-07-06T08:05:04;17.80;99.90
27224;DHT22;14965;50.660;13.226;2022-07-06T08:07:30;17.60;99.90
27224;DHT22;14965;50.660;13.226;2022-07-06T08:09:58;17.30;99.90
27224;DHT22;14965;50.660;13.226;2022-07-06T08:12:24;16.70;99.90
27224;DHT22;14965;50.660;13.226;2022-07-06T08:14:49;16.80;99.90
27224;DHT22;14965;50.660;13.226;2022-07-06T08:17:15;17.10;99.90
27224;DHT22;14965;50.660;13.226;2022-07-06T08:19:41;17.60;99.90
27224;DHT22;14965;50.660;13.226;2022-07-06T08:22:07;18.00;99.90
27224;DHT22;14965;50.660;13.226;2022-07-06T08:24:33;18.00;99.90
27224;DHT22;14965;50.660;13.226;2022-07-06T08:27:00;17.90;99.90
27224;DHT22;14965;50.660;13.226;2022-07-06T08:29:26;17.60;99.90
27224;DHT22;14965;50.660;13.226;2022-07-06T08:31:52;17.30;99.90
27224;DHT22;14965;50.660;13.226;2022-07-06T08:34:18;17.30;99.90
27224;DHT22;14965;50.660;13.226;2022-07-06T08:36:44;17.60;99.90
27224;DHT22;14965;50.660;13.226;2022-07-06T08:39:11;17.90;99.90
27224;DHT22;14965;50.660;13.226;2022-07-06T08:41:40;18.20;99.90
27224;DHT22;14965;50.660;13.226;2022-07-06T08:44:09;18.40;99.90
27224;DHT22;14965;50.660;13.226;2022-07-06T08:46:35;18.40;99.90
27224;DHT22;14965;50.660;13.226;2022-07-06T08:49:04;18.30;99.90
27224;DHT22;14965;50.660;13.226;2022-07-06T08:51:31;18.10;99.90
27224;DHT22;14965;50.660;13.226;2022-07-06T08:53:58;18.20;99.90
27224;DHT22;14965;50.660;13.226;2022-07-06T08:56:24;18.00;99.90
27224;DHT22;14965;50.660;13.226;2022-07-06T08:58:52;17.80;99.90
27224;DHT22;14965;50.660;13.226;2022-07-06T09:01:21;18.00;99.90
27224;DHT22;14965;50.660;13.226;2022-07-06T09:03:49;18.30;99.90
27224;DHT22;14965;50.660;13.226;2022-07-06T09:06:16;18.20;99.90
27224;DHT22;14965;50.660;13.226;2022-07-06T09:08:49;17.80;99.90
27224;DHT22;14965;50.660;13.226;2022-07-06T09:11:18;18.00;99.90
27224;DHT22;14965;50.660;13.226;2022-07-06T09:13:44;18.20;99.90
27224;DHT22;14965;50.660;13.226;2022-07-06T09:16:10;18.00;99.90
27224;DHT22;14965;50.660;13.226;2022-07-06T09:18:39;17.70;99.90
27224;DHT22;14965;50.660;13.226;2022-07-06T09:21:05;17.40;99.90
27224;DHT22;14965;50.660;13.226;2022-07-06T09:23:31;17.10;99.90
27224;DHT22;14965;50.660;13.226;2022-07-06T09:25:58;16.90;99.90
27224;DHT22;14965;50.660;13.226;2022-07-06T09:28:40;17.00;99.90
27224;DHT22;14965;50.660;13.226;2022-07-06T09:31:07;17.50;99.90
27224;DHT22;14965;50.660;13.226;2022-07-06T09:33:34;17.70;99.90
27224;DHT22;14965;50.660;13.226;2022-07-06T09:36:02;17.80;99.90
27224;DHT22;14965;50.660;13.226;2022-07-06T09:38:29;17.70;99.90
27224;DHT22;14965;50.660;13.226;2022-07-06T09:40:54;17.60;99.90
27224;DHT22;14965;50.660;13.226;2022-07-06T09:43:22;17.50;99.90
27224;DHT22;14965;50.660;13.226;2022-07-06T09:45:50;17.20;99.90
27224;DHT22;14965;50.660;13.226;2022-07-06T09:48:19;16.80;99.90
27224;DHT22;14965;50.660;13.226;2022-07-06T09:50:46;16.50;99.90
27224;DHT22;14965;50.660;13.226;2022-07-06T09:53:14;16.50;99.90
27224;DHT22;14965;50.660;13.226;2022-07-06T09:55:43;16.70;99.90
27224;DHT22;14965;50.660;13.226;2022-07-06T09:58:10;17.00;99.90
27224;DHT22;14965;50.660;13.226;2022-07-06T10:00:36;17.30;99.90
27224;DHT22;14965;50.660;13.226;2022-07-06T10:03:02;17.80;99.90
27224;DHT22;14965;50.660;13.226;2022-07-06T10:05:28;18.20;99.90
27224;DHT22;14965;50.660;13.226;2022-07-06T10:07:57;18.30;99.90
27224;DHT22;14965;50.660;13.226;2022-07-06T10:10:27;18.40;99.90
27224;DHT22;14965;50.660;13.226;2022-07-06T10:12:55;18.60;99.90
27224;DHT22;14965;50.660;13.226;2022-07-06T10:15:23;18.50;99.90
27224;DHT22;14965;50.660;13.226;2022-07-06T10:17:51;18.20;99.90
27224;DHT22;14965;50.660;13.226;2022-07-06T10:20:17;18.20;99.90
27224;DHT22;14965;50.660;13.226;2022-07-06T10:22:44;18.50;99.90
27224;DHT22;14965;50.660;13.226;2022-07-06T10:25:11;18.80;99.90
27224;DHT22;14965;50.660;13.226;2022-07-06T10:27:39;19.10;99.90
27224;DHT22;14965;50.660;13.226;2022-07-06T10:30:06;19.30;99.90
27224;DHT22;14965;50.660;13.226;2022-07-06T10:32:33;19.50;99.50
27224;DHT22;14965;50.660;13.226;2022-07-06T10:35:01;19.70;98.30
27224;DHT22;14965;50.660;13.226;2022-07-06T10:37:27;19.80;98.50
27224;DHT22;14965;50.660;13.226;2022-07-06T10:39:54;19.80;98.40
27224;DHT22;14965;50.660;13.226;2022-07-06T10:42:43;19.80;97.50
27224;DHT22;14965;50.660;13.226;2022-07-06T10:45:11;19.90;97.90
27224;DHT22;14965;50.660;13.226;2022-07-06T10:47:38;20.10;96.40
27224;DHT22;14965;50.660;13.226;2022-07-06T10:50:06;19.90;96.20
27224;DHT22;14965;50.660;13.226;2022-07-06T10:52:48;20.00;97.30
27224;DHT22;14965;50.660;13.226;2022-07-06T10:55:28;20.00;97.50
27224;DHT22;14965;50.660;13.226;2022-07-06T10:57:56;20.00;98.30
27224;DHT22;14965;50.660;13.226;2022-07-06T11:00:22;20.20;97.10
27224;DHT22;14965;50.660;13.226;2022-07-06T11:02:48;20.30;96.90
27224;DHT22;14965;50.660;13.226;2022-07-06T11:05:40;20.60;96.70
27224;DHT22;14965;50.660;13.226;2022-07-06T11:08:09;20.40;96.40
27224;DHT22;14965;50.660;13.226;2022-07-06T11:10:46;20.30;95.20
27224;DHT22;14965;50.660;13.226;2022-07-06T11:13:26;20.30;95.30
27224;DHT22;14965;50.660;13.226;2022-07-06T11:16:00;19.90;95.30
27224;DHT22;14965;50.660;13.226;2022-07-06T11:18:27;20.00;96.80
27224;DHT22;14965;50.660;13.226;2022-07-06T11:21:18;20.10;96.30
27224;DHT22;14965;50.660;13.226;2022-07-06T11:23:47;20.10;96.40
27224;DHT22;14965;50.660;13.226;2022-07-06T11:26:15;20.00;94.40
27224;DHT22;14965;50.660;13.226;2022-07-06T11:28:45;19.70;94.40
27224;DHT22;14965;50.660;13.226;2022-07-06T11:31:12;19.50;95.90
27224;DHT22;14965;50.660;13.226;2022-07-06T11:33:38;19.40;94.50
27224;DHT22;14965;50.660;13.226;2022-07-06T11:36:12;19.40;95.10
27224;DHT22;14965;50.660;13.226;2022-07-06T11:38:39;19.70;95.40
27224;DHT22;14965;50.660;13.226;2022-07-06T11:41:05;19.90;94.90
27224;DHT22;14965;50.660;13.226;2022-07-06T11:43:31;20.20;95.50
27224;DHT22;14965;50.660;13.226;2022-07-06T11:45:59;20.50;93.90
27224;DHT22;14965;50.660;13.226;2022-07-06T11:48:24;20.70;94.50
27224;DHT22;14965;50.660;13.226;2022-07-06T11:51:02;20.60;92.20
27224;DHT22;14965;50.660;13.226;2022-07-06T11:53:28;20.60;93.20
27224;DHT22;14965;50.660;13.226;2022-07-06T11:55:55;20.40;91.70
27224;DHT22;14965;50.660;13.226;2022-07-06T11:58:27;20.30;93.10
27224;DHT22;14965;50.660;13.226;2022-07-06T12:01:08;20.10;94.00
27224;DHT22;14965;50.660;13.226;2022-07-06T12:03:35;19.90;95.20
27224;DHT22;14965;50.660;13.226;2022-07-06T12:06:03;19.60;95.30
27224;DHT22;14965;50.660;13.226;2022-07-06T12:08:30;19.70;95.20
27224;DHT22;14965;50.660;13.226;2022-07-06T12:10:55;19.80;95.70
27224;DHT22;14965;50.660;13.226;2022-07-06T12:13:22;19.70;94.40
27224;DHT22;14965;50.660;13.226;2022-07-06T12:15:48;19.80;94.80
27224;DHT22;14965;50.660;13.226;2022-07-06T12:18:15;19.90;95.20
27224;DHT22;14965;50.660;13.226;2022-07-06T12:20:41;20.30;95.20
27224;DHT22;14965;50.660;13.226;2022-07-06T12:23:07;20.60;93.90
27224;DHT22;14965;50.660;13.226;2022-07-06T12:25:34;21.00;92.40
27224;DHT22;14965;50.660;13.226;2022-07-06T12:28:02;21.10;92.10
27224;DHT22;14965;50.660;13.226;2022-07-06T12:30:28;21.30;92.20
27224;DHT22;14965;50.660;13.226;2022-07-06T12:33:16;21.30;92.50
27224;DHT22;14965;50.660;13.226;2022-07-06T12:35:42;20.90;91.90
27224;DHT22;14965;50.660;13.226;2022-07-06T12:38:08;20.60;92.80
27224;DHT22;14965;50.660;13.226;2022-07-06T12:40:35;20.40;92.30
27224;DHT22;14965;50.660;13.226;2022-07-06T12:43:02;20.10;92.70
27224;DHT22;14965;50.660;13.226;2022-07-06T12:45:28;20.10;93.00
27224;DHT22;14965;50.660;13.226;2022-07-06T12:47:58;19.80;94.40
27224;DHT22;14965;50.660;13.226;2022-07-06T12:50:32;19.90;94.00
27224;DHT22;14965;50.660;13.226;2022-07-06T12:52:59;19.80;93.20
27224;DHT22;14965;50.660;13.226;2022-07-06T12:55:26;19.90;94.10
27224;DHT22;14965;50.660;13.226;2022-07-06T12:57:53;20.10;93.90
27224;DHT22;14965;50.660;13.226;2022-07-06T13:00:20;20.20;93.30
27224;DHT22;14965;50.660;13.226;2022-07-06T13:02:47;20.20;93.40
27224;DHT22;14965;50.660;13.226;2022-07-06T13:05:16;20.20;92.70
27224;DHT22;14965;50.660;13.226;2022-07-06T13:07:46;20.40;92.20
27224;DHT22;14965;50.660;13.226;2022-07-06T13:10:14;20.50;91.70
27224;DHT22;14965;50.660;13.226;2022-07-06T13:12:41;20.30;93.00
27224;DHT22;14965;50.660;13.226;2022-07-06T13:15:09;20.20;92.80
27224;DHT22;14965;50.660;13.226;2022-07-06T13:17:36;20.10;93.20
27224;DHT22;14965;50.660;13.226;2022-07-06T13:20:01;20.30;93.30
27224;DHT22;14965;50.660;13.226;2022-07-06T13:22:28;20.30;92.50
27224;DHT22;14965;50.660;13.226;2022-07-06T13:24:55;20.10;91.60
27224;DHT22;14965;50.660;13.226;2022-07-06T13:27:21;19.90;91.90
27224;DHT22;14965;50.660;13.226;2022-07-06T13:29:47;19.70;92.20
27224;DHT22;14965;50.660;13.226;2022-07-06T13:32:13;19.80;92.50
27224;DHT22;14965;50.660;13.226;2022-07-06T13:34:39;19.80;92.00
27224;DHT22;14965;50.660;13.226;2022-07-06T13:37:05;20.10;91.80
27224;DHT22;14965;50.660;13.226;2022-07-06T13:39:31;20.40;91.70
27224;DHT22;14965;50.660;13.226;2022-07-06T13:42:00;20.60;91.40
27224;DHT22;14965;50.660;13.226;2022-07-06T13:44:26;20.50;89.30
27224;DHT22;14965;50.660;13.226;2022-07-06T13:46:52;20.20;88.60
27224;DHT22;14965;50.660;13.226;2022-07-06T13:49:18;20.10;91.00
27224;DHT22;14965;50.660;13.226;2022-07-06T13:51:44;20.30;89.80
27224;DHT22;14965;50.660;13.226;2022-07-06T13:54:10;20.40;90.70
27224;DHT22;14965;50.660;13.226;2022-07-06T13:56:39;20.60;91.40
27224;DHT22;14965;50.660;13.226;2022-07-06T13:59:06;20.70;90.10
27224;DHT22;14965;50.660;13.226;2022-07-06T14:01:32;20.60;89.00
27224;DHT22;14965;50.660;13.226;2022-07-06T14:03:59;20.50;89.50
27224;DHT22;14965;50.660;13.226;2022-07-06T14:06:25;20.40;90.40
27224;DHT22;14965;50.660;13.226;2022-07-06T14:08:51;20.40;90.20
27224;DHT22;14965;50.660;13.226;2022-07-06T14:11:17;20.50;90.30
27224;DHT22;14965;50.660;13.226;2022-07-06T14:13:44;20.40;89.70
27224;DHT22;14965;50.660;13.226;2022-07-06T14:16:11;20.20;89.20
27224;DHT22;14965;50.660;13.226;2022-07-06T14:18:37;20.10;90.00
27224;DHT22;14965;50.660;13.226;2022-07-06T14:21:03;20.00;90.90
27224;DHT22;14965;50.660;13.226;2022-07-06T14:23:29;19.80;90.10
27224;DHT22;14965;50.660;13.226;2022-07-06T14:25:56;19.70;90.30
27224;DHT22;14965;50.660;13.226;2022-07-06T14:28:22;19.80;91.80
27224;DHT22;14965;50.660;13.226;2022-07-06T14:30:48;19.90;90.40
27224;DHT22;14965;50.660;13.226;2022-07-06T14:33:16;20.00;91.00
27224;DHT22;14965;50.660;13.226;2022-07-06T14:35:44;20.20;91.40
27224;DHT22;14965;50.660;13.226;2022-07-06T14:38:12;20.30;91.20
27224;DHT22;14965;50.660;13.226;2022-07-06T14:40:38;20.50;89.30
27224;DHT22;14965;50.660;13.226;2022-07-06T14:43:04;20.40;88.70
27224;DHT22;14965;50.660;13.226;2022-07-06T14:45:30;20.20;90.10
27224;DHT22;14965;50.660;13.226;2022-07-06T14:47:56;20.10;90.50
27224;DHT22;14965;50.660;13.226;2022-07-06T14:50:24;20.10;91.00
27224;DHT22;14965;50.660;13.226;2022-07-06T14:52:50;20.20;89.10
27224;DHT22;14965;50.660;13.226;2022-07-06T14:55:16;20.30;89.80
27224;DHT22;14965;50.660;13.226;2022-07-06T14:57:42;20.30;89.00
27224;DHT22;14965;50.660;13.226;2022-07-06T15:00:09;20.40;90.20
27224;DHT22;14965;50.660;13.226;2022-07-06T15:02:36;20.50;90.60
27224;DHT22;14965;50.660;13.226;2022-07-06T15:05:03;20.50;90.40
27224;DHT22;14965;50.660;13.226;2022-07-06T15:07:30;20.50;89.50
27224;DHT22;14965;50.660;13.226;2022-07-06T15:09:56;20.30;89.30
27224;DHT22;14965;50.660;13.226;2022-07-06T15:12:22;20.20;90.90
27224;DHT22;14965;50.660;13.226;2022-07-06T15:14:48;20.20;91.00